Van Burensburg, Illinois
Current Conditions -  °F | °C
As of 8:55 AM on Wednesday 22 Oct 2014 (Local Time) from K3LF Reporting Station
Clear Clear  
Wind Chill: 38°   Ceiling: Unl
Heat Index: 44°   Visibility: 10mi
Dew Point: 38°   Wind: 10mph
Humidity: 81%   Direction: 90°E
Pressure: 30.32"   Gusts: NA
Location:  39.1009°N, 89.3067°W
Report Text: K3LF 221355Z AUTO 09009KT 10SM CLR 07/04 A3032 RMK AO2 T00660035
Loading
Personal Weather Stations






























Interactive Weather Map
Tropical Storm Tracking
New forecast layout! Learn more

10-Day Weather Forecast

Advertisements
Track Severe Weather on mobile